Tangaroa — ZMFR — position and weather

sailwx.info

Track history (hours):
 
Tides and Currents Weather Stations Pressure Air Temp Water Temp Dewpoint Dewpoint Depression Visibility Wind Speed Wind Dir Waves Ship Positions

Oceanographic research ship Tangaroa (New Zealand)

Detailed information on ship capabilities available from University of Delaware's Ocean Information Center.

Last reported at 2020-Jul-07 14:00 UTC. Time now 2020-Jul-07 16:29 UTC.
Position S 44°06' E 174°42'.

Length 70 m; beam 13.8 m.

Type: Ship. MMSI: 512000058.

Wind at 29 knots

Barometer 995.0 mb
Air temperature 9.1 ° C
Dewpoint 5.6 ° C

Date/timePositionNaut miles runAvg speedWind from/ knotsBaromVisibWave heightAir tempDewpointWater temp
2020-Jul-07 14:00S 44°06' E 174°42'12 6.0 995.0 9.1 5.6
2020-Jul-07 12:00S 43°54' E 174°42'4 4.3 994.9 9.3 5.0
2020-Jul-07 11:00S 43°54' E 174°48'6 6.0 994.5 9.7 5.1
2020-Jul-07 10:00S 43°48' E 174°48'6 6.0 994.3 9.9 5.1
2020-Jul-07 09:00S 43°42' E 174°48'6 6.0 994.0 9.7 3.9
2020-Jul-07 08:00S 43°36' E 174°48'0 0.0 994.0 9.8 4.6
2020-Jul-07 07:00S 43°36' E 174°48'7 7.4 993.3 10.0 4.8
2020-Jul-07 06:00S 43°30' E 174°54'7 7.4 993.1 10.5 5.7
2020-Jul-07 05:00S 43°36' E 174°48'4 4.3 240 / 27992.9 10.3 5.4
2020-Jul-07 04:00S 43°36' E 174°42'6 6.0 993.0 8.7 6.0
2020-Jul-07 03:00S 43°42' E 174°42'7 7.4 992.0 9.7 6.3
2020-Jul-07 02:00S 43°48' E 174°36'6 6.0 991.4 9.3 6.3
2020-Jul-07 01:00S 43°54' E 174°36'7 7.4 991.3 9.9 6.6
2020-Jul-07 00:00S 44°00' E 174°30'6 6.0 991.8 9.6 7.7
2020-Jul-06 23:00S 44°06' E 174°30'6 6.0 992.0 9.9 6.3
2020-Jul-06 22:00S 44°00' E 174°30'0 0.0 991.9 10.6 6.4
2020-Jul-06 21:00S 44°00' E 174°30'0 0.0 991.8 10.6 8.0
2020-Jul-06 20:00S 44°00' E 174°30'0 0.0 991.3 10.1 8.6
2020-Jul-06 19:00S 44°00' E 174°30'0 0.0 991.1 9.9 8.4
2020-Jul-06 18:00S 44°00' E 174°30'0 0.0 991.2 9.7 8.0
2020-Jul-06 17:00S 44°00' E 174°30'0 0.0 991.5 9.5 8.1
2020-Jul-06 16:00S 44°00' E 174°30'0 0.0 992.0 9.5 8.2
2020-Jul-06 15:00S 44°00' E 174°30'0 0.0 992.4 9.7 8.0
2020-Jul-06 14:00S 44°00' E 174°30'0 0.0 992.4 9.5 7.8
2020-Jul-06 13:00S 44°00' E 174°30'0 0.0 992.8 9.7 8.5
2020-Jul-06 12:00S 44°00' E 174°30'0 0.0 993.2 9.5 8.4
2020-Jul-06 11:00S 44°00' E 174°30'0 0.0 993.1 9.4 8.5
2020-Jul-06 10:00S 44°00' E 174°30'0 0.0 993.1 9.5 8.4
2020-Jul-06 09:00S 44°00' E 174°30'0 0.0 993.1 9.8 8.5
2020-Jul-06 08:00S 44°00' E 174°30'0 0.0 993.1 10.0 8.8
2020-Jul-06 07:00S 44°00' E 174°30'0 0.0 992.7 10.2 9.2
2020-Jul-06 06:00S 44°00' E 174°30'0 0.0 992.3 10.1 9.7
2020-Jul-06 05:00S 44°00' E 174°30'7 7.4 992.0 11.310.3
2020-Jul-06 04:00S 44°06' E 174°24'0 0.0 992.1 11.910.3
2020-Jul-06 03:00S 44°06' E 174°24'0 0.0 992.2 12.210.4
2020-Jul-06 02:00S 44°06' E 174°24'6 6.0 992.9 12.410.3
2020-Jul-06 01:00S 44°00' E 174°24'0 0.0 993.6 12.210.7
2020-Jul-06 00:00S 44°00' E 174°24'4 4.3 994.3 12.611.1
2020-Jul-05 23:00S 44°00' E 174°30'0 0.0 995.1 12.811.0
2020-Jul-05 22:00S 44°00' E 174°30'4 4.3 996.3 12.811.0
2020-Jul-05 21:00S 44°00' E 174°24'0 0.0 997.1 12.810.7
2020-Jul-05 20:00S 44°00' E 174°24'4 4.3 997.3 12.710.4
2020-Jul-05 19:00S 44°00' E 174°30'0 0.0 997.5 12.810.6
2020-Jul-05 18:00S 44°00' E 174°30'4 4.3 998.1 12.610.3
2020-Jul-05 17:00S 44°00' E 174°24'4 4.3 998.7 12.510.3
2020-Jul-05 16:00S 44°00' E 174°30'0 0.0 999.2 12.610.1
2020-Jul-05 15:00S 44°00' E 174°30'4 4.3 1000.8 12.510.1
2020-Jul-05 14:00S 44°00' E 174°24'4 2.2 1000.7 12.5 9.7
2020-Jul-05 12:00S 44°00' E 174°30'4 4.3 1002.9 12.5 9.6
2020-Jul-05 11:00S 44°00' E 174°24'0 0.0 1003.6 12.4 8.7
2020-Jul-05 10:00S 44°00' E 174°24'4 4.3 1003.6 12.4 8.5
2020-Jul-05 09:00S 44°00' E 174°30'0 0.0 1004.1 12.5 8.3
2020-Jul-05 08:00S 44°00' E 174°30'0 0.0 1004.3 12.5 8.2
2020-Jul-05 07:00S 44°00' E 174°30'4 4.3 1005.0 12.0 8.8
2020-Jul-05 06:00S 44°00' E 174°24'0 0.0 1004.8 11.7 8.9
2020-Jul-05 05:00S 44°00' E 174°24'0 0.0 1005.1 11.6 9.1
2020-Jul-05 04:00S 44°00' E 174°24'4 4.3 1005.5 11.6 9.2
2020-Jul-05 03:00S 44°00' E 174°30'0 0.0 1005.9 11.7 9.4
2020-Jul-05 02:00S 44°00' E 174°30'4 4.3 1006.3 11.9 9.5
2020-Jul-05 01:00S 44°00' E 174°24'4 4.3 1006.8 11.7 9.5
2020-Jul-05 00:00S 44°00' E 174°30'0 0.0 1007.7 11.9 9.6
2020-Jul-04 23:00S 44°00' E 174°30'4 4.3 1008.8 11.8 9.9
2020-Jul-04 22:00S 44°00' E 174°24'0 0.0 1009.0 11.8 9.5
2020-Jul-04 21:00S 44°00' E 174°24'4 4.3 1008.6 11.7 9.4
2020-Jul-04 20:00S 44°00' E 174°30'0 0.0 1008.7 11.8 9.3
2020-Jul-04 19:00S 44°00' E 174°30'0 0.0 1008.9 11.8 9.3
2020-Jul-04 18:00S 44°00' E 174°30'4 4.3 1008.9 11.8 9.3
2020-Jul-04 17:00S 44°00' E 174°24'4 4.3 010 / 221009.2 11.7 9.0
2020-Jul-04 16:00S 44°00' E 174°30'0 0.0 1009.7 11.9 9.1
2020-Jul-04 15:00S 44°00' E 174°30'0 0.0 1010.1 12.0 9.4
2020-Jul-04 14:00S 44°00' E 174°30'0 0.0 1010.8 11.9 9.3
2020-Jul-04 13:00S 44°00' E 174°30'0 0.0 1011.0 12.0 9.4
2020-Jul-04 12:00S 44°00' E 174°30'0 0.0 1011.5 12.2 9.6
2020-Jul-04 11:00S 44°00' E 174°30'0 0.0 1011.6 12.1 9.2
2020-Jul-04 10:00S 44°00' E 174°30'0 0.0 1012.6 12.4 9.3
2020-Jul-04 09:00S 44°00' E 174°30'0 0.0 1013.4 12.4 9.8
2020-Jul-04 08:00S 44°00' E 174°30'0 0.0 1013.8 12.110.1
2020-Jul-04 07:00S 44°00' E 174°30'0 0.0 1014.3 11.9 9.7
2020-Jul-04 06:00S 44°00' E 174°30'0 0.0 1014.2 11.7 9.0
2020-Jul-04 05:00S 44°00' E 174°30'0 0.0 1014.9 11.6 8.7
2020-Jul-04 04:00S 44°00' E 174°30'0 0.0 1015.6 11.6 7.7
2020-Jul-04 03:00S 44°00' E 174°30'0 0.0 1016.0 11.4 7.8
2020-Jul-04 02:00S 44°00' E 174°30'0 0.0 1016.5 11.3 8.8
2020-Jul-04 01:00S 44°00' E 174°30'0 0.0 1017.9 10.7 8.3
2020-Jul-04 00:00S 44°00' E 174°30'0 0.0 1018.8 10.7 7.7
2020-Jul-03 23:00S 44°00' E 174°30'0 0.0 1019.7 10.0 7.0
2020-Jul-03 22:00S 44°00' E 174°30'0 0.0 1019.7 9.4 6.6
2020-Jul-03 21:00S 44°00' E 174°30'0 0.0 1019.6 8.5 5.8
2020-Jul-03 20:00S 44°00' E 174°30'0 0.0 1020.2 8.2 5.4
2020-Jul-03 19:00S 44°00' E 174°30'0 0.0 1020.3 8.1 5.5
2020-Jul-03 18:00S 44°00' E 174°30'0 0.0 1020.2 7.6 5.3
2020-Jul-03 17:00S 44°00' E 174°30'0 0.0 1020.1 7.5 5.5
2020-Jul-03 16:00S 44°00' E 174°30'0 0.0 1020.4 7.3 5.8
2020-Jul-03 15:00S 44°00' E 174°30'0 0.0 1021.0 7.2 6.2
2020-Jul-03 14:00S 44°00' E 174°30'0 0.0 1020.9 7.2 6.2
2020-Jul-03 13:00S 44°00' E 174°30'0 0.0 1021.0 6.9 6.2
2020-Jul-03 12:00S 44°00' E 174°30'0 0.0 1020.9 7.1 6.1
2020-Jul-03 11:00S 44°00' E 174°30'0 0.0 1021.3 7.7 5.2
2020-Jul-03 10:00S 44°00' E 174°30'0 0.0 1021.3 7.9 5.0
2020-Jul-03 09:00S 44°00' E 174°30'0 0.0 1021.6 7.9 5.1
2020-Jul-03 08:00S 44°00' E 174°30'0 0.0 1021.3 8.1 5.4
2020-Jul-03 07:00S 44°00' E 174°30'0 0.0 1021.0 8.0 5.3
2020-Jul-03 06:00S 44°00' E 174°30'0 0.0 1020.7 8.1 5.2
2020-Jul-03 05:00S 44°00' E 174°30'0 0.0 1020.4 8.3 5.4
2020-Jul-03 04:00S 44°00' E 174°30'0 0.0 1020.4 8.8 5.4
2020-Jul-03 03:00S 44°00' E 174°30'0 0.0 1020.1 8.5 5.3
2020-Jul-03 02:00S 44°00' E 174°30'0 0.0 1019.9 8.5 5.5
2020-Jul-03 01:00S 44°00' E 174°30'0 0.0 1020.4 7.9 5.9
2020-Jul-03 00:00S 44°00' E 174°30'0 0.0 1020.8 8.1 5.5
2020-Jul-02 23:00S 44°00' E 174°30'7 7.4 1021.7 7.9 6.9
2020-Jul-02 22:00S 44°06' E 174°24'4 4.3 1021.6 7.7 6.4
2020-Jul-02 21:00S 44°06' E 174°18'7 7.4 1021.3 7.7 6.3
2020-Jul-02 20:00S 44°12' E 174°12'0 0.0 1021.1 8.0 6.3
2020-Jul-02 19:00S 44°12' E 174°12'7 7.4 1021.0 7.6 6.5
2020-Jul-02 18:00S 44°18' E 174°06'0 0.0 1020.6 7.5 6.7
2020-Jul-02 17:00S 44°18' E 174°06'0 0.0 1020.0 7.1 6.4
2020-Jul-02 16:00S 44°18' E 174°06'7 7.4 1020.2 7.0 6.5
2020-Jul-02 15:00S 44°12' E 174°12'7 7.4 200 / 171020.3 7.5 6.0
2020-Jul-02 14:00S 44°06' E 174°18'11 5.3 210 / 171020.1 7.4 6.1
2020-Jul-02 12:00S 44°00' E 174°30'0 0.0 1020.0 8.2 5.1
2020-Jul-02 11:00S 44°00' E 174°30'1212.0 1019.8 8.2 5.5
2020-Jul-02 10:00S 43°48' E 174°30'7 7.4 210 / 271019.4 8.6 5.6
2020-Jul-02 09:00S 43°42' E 174°24'1212.0 210 / 301019.1 8.3 6.4
2020-Jul-02 08:00S 43°30' E 174°24'6 6.0 220 / 311018.5 8.5 5.7
2020-Jul-02 07:00S 43°24' E 174°24'7 7.4 210 / 291018.3 8.6 5.5
2020-Jul-02 06:00S 43°18' E 174°18'1312.8 220 / 281018.2 8.5 5.3
2020-Jul-02 05:00S 43°06' E 174°24'7 7.4 210 / 271017.7 8.5 4.7
2020-Jul-02 04:00S 43°00' E 174°30'7 7.4 200 / 311016.8 8.8 4.0
2020-Jul-02 03:00S 42°54' E 174°36'7 7.4 1015.9 8.9 3.4
2020-Jul-02 02:00S 42°48' E 174°42'6 6.0 1015.2 8.1 4.5
2020-Jul-02 01:00S 42°42' E 174°42'7 3.7 1014.8 8.7 2.9
2020-Jul-01 23:00S 42°36' E 174°48'6 6.0 1014.4 8.3 3.5
2020-Jul-01 22:00S 42°30' E 174°48'6 6.0 1013.2 8.2 5.1
2020-Jul-01 21:00S 42°24' E 174°48'6 6.0 1011.9 8.8 5.3
2020-Jul-01 20:00S 42°18' E 174°48'6 6.0 1010.7 8.6 5.4
2020-Jul-01 19:00S 42°12' E 174°48'0 0.0 1009.3 8.7 5.7
2020-Jul-01 18:00S 42°12' E 174°48'6 6.0 1007.9 8.6 5.9
2020-Jul-01 17:00S 42°06' E 174°48'6 6.0 1006.9 8.8 5.4
2020-Jul-01 16:00S 42°00' E 174°48'3125.2 1006.5 9.2 6.3
2020-Jul-01 15:58S 42°02' E 174°45'8 8.1
2020-Jul-01 15:00S 41°54' E 174°48'0 0.0 1005.9 9.3 6.0
2020-Jul-01 14:00S 41°54' E 174°48'3 7.1 1005.5 9.2 6.0
2020-Jul-01 13:30S 41°51' E 174°47'9 5.7
2020-Jul-01 12:00S 41°42' E 174°48'0 0.0 1004.2 8.5 6.5
2020-Jul-01 11:00S 41°42' E 174°48'6 6.0 1004.3 7.6 5.8
2020-Jul-01 10:00S 41°36' E 174°48'6 6.0 1004.2 7.3 4.4
2020-Jul-01 09:00S 41°30' E 174°48'6 6.0 1004.8 7.6 4.8
2020-Jul-01 08:00S 41°24' E 174°48'6 6.0 1004.4 9.1 3.8
2020-Jul-01 07:00S 41°18' E 174°48'0 0.0 1004.5 9.2 2.7
2020-Jul-01 06:00S 41°18' E 174°48'2 2.3 1004.8 9.3 0.5
2020-Jul-01 05:07S 41°16' E 174°47'217.1
2020-Jul-01 05:00S 41°18' E 174°48'2 2.0 1004.8 9.4 0.8
2020-Jul-01 04:01S 41°16' E 174°47'2118.5
2020-Jul-01 04:00S 41°18' E 174°48'0 0.0 1004.9 9.1 0.7
2020-Jul-01 03:00S 41°18' E 174°48'2 3.2 1004.8 9.3 0.8
2020-Jul-01 02:22S 41°16' E 174°47'2 5.5
2020-Jul-01 02:00S 41°18' E 174°48'0 0.0 1004.9 9.3 1.3
2020-Jul-01 01:00S 41°18' E 174°48'2 2.0 1005.0 8.9 1.1
2020-Jul-01 00:00S 41°16' E 174°47'2122.5
2020-Jul-01 00:00S 41°18' E 174°48'0 0.0 1005.9 8.8 1.5
2020-Jun-30 23:00S 41°18' E 174°48'0 0.0 1006.5 8.5 0.9
2020-Jun-30 22:00S 41°18' E 174°48'2 3.7 1006.1 8.1 1.7
2020-Jun-30 21:27S 41°16' E 174°47'2 4.3
2020-Jun-30 21:00S 41°18' E 174°48'0 0.0 1006.0 7.4 3.4
2020-Jun-30 20:00S 41°18' E 174°48'0 0.0 1005.6 7.3 2.6
2020-Jun-30 19:00S 41°18' E 174°48'2 4.1 1005.4 7.6 3.0
2020-Jun-30 18:30S 41°16' E 174°47'2 3.9
2020-Jun-30 18:00S 41°18' E 174°48'258.3 1005.0 7.2 3.8
2020-Jun-30 17:57S 41°16' E 174°47'0 0.0
2020-Jun-30 17:30S 41°16' E 174°47'2 3.9
2020-Jun-30 17:00S 41°18' E 174°48'2 4.1 1004.4 7.8 4.1
2020-Jun-30 16:30S 41°16' E 174°47'2 3.9
2020-Jun-30 16:00S 41°18' E 174°48'2 4.1 1004.4 8.1 3.8
2020-Jun-30 15:30S 41°16' E 174°47'2 3.9
2020-Jun-30 15:00S 41°18' E 174°48'2 4.1 1004.5 8.8 4.4
2020-Jun-30 14:30S 41°16' E 174°47'2 3.9
2020-Jun-30 14:00S 41°18' E 174°48'2 4.1 1004.5 9.4 3.2
2020-Jun-30 13:30S 41°16' E 174°47'2 3.9
2020-Jun-30 13:00S 41°18' E 174°48'2 2.0 1004.2 9.8 3.2
2020-Jun-30 12:00S 41°16' E 174°47'2138.6
2020-Jun-30 12:00S 41°18' E 174°48'0 0.0 1004.4 9.9 2.2
2020-Jun-30 11:00S 41°18' E 174°48'0 0.0 1004.6 9.8 2.0
2020-Jun-30 10:00S 41°18' E 174°48'0 0.0 1004.6 9.5 2.4
2020-Jun-30 09:00S 41°18' E 174°48'0 0.0 1004.6 9.2 2.3
2020-Jun-30 08:00S 41°18' E 174°48'2 3.4 1004.9 8.9 4.1
2020-Jun-30 07:24S 41°16' E 174°47'2 4.9
2020-Jun-30 07:00S 41°18' E 174°48'0 0.0 1005.0 8.5 4.0
2020-Jun-30 06:00S 41°18' E 174°48'0 0.0 1005.3 8.0 4.5
2020-Jun-30 05:00S 41°18' E 174°48'0 0.0 1005.4 7.6 4.7
2020-Jun-30 04:00S 41°18' E 174°48'2 4.1 1005.4 8.3 4.4
2020-Jun-30 03:30S 41°16' E 174°47'2 3.9
2020-Jun-30 03:00S 41°18' E 174°48'2 4.1 1005.7 7.7 4.9
2020-Jun-30 02:30S 41°16' E 174°47'2 3.9
2020-Jun-30 02:00S 41°18' E 174°48'0 0.0 1005.5 9.2 4.2
2020-Jun-30 01:00S 41°18' E 174°48'2 4.1 1006.4 8.0 4.7
2020-Jun-30 00:30S 41°16' E 174°47'2 3.9
2020-Jun-30 00:00S 41°18' E 174°48'0 0.0 1007.0 8.7 4.4
2020-Jun-29 23:00S 41°18' E 174°48'253.5 1007.3 9.4 4.7
2020-Jun-29 22:57S 41°16' E 174°47'0 0.0
2020-Jun-29 22:30S 41°16' E 174°47'2 3.9
2020-Jun-29 22:00S 41°18' E 174°48'2 4.1 1007.3 9.8 1.5
2020-Jun-29 21:30S 41°16' E 174°47'2 3.9
2020-Jun-29 21:00S 41°18' E 174°48'0 0.0 1007.1 9.7 2.6
2020-Jun-29 20:00S 41°18' E 174°48'0 0.0 1006.8 9.5 3.8
2020-Jun-29 19:00S 41°18' E 174°48'0 0.0 1006.4 9.4 5.6
2020-Jun-29 18:00S 41°18' E 174°48'0 0.0 1005.9 9.5 5.8
2020-Jun-29 17:00S 41°18' E 174°48'2 4.1 1005.9 9.4 5.2
2020-Jun-29 16:30S 41°16' E 174°47'0 0.0
2020-Jun-29 16:00S 41°16' E 174°47'2172.1
2020-Jun-29 16:00S 41°18' E 174°48'0 0.0 1006.2 9.6 5.8
2020-Jun-29 15:00S 41°18' E 174°48'2 2.0 1006.2 10.1 3.6
2020-Jun-29 14:00S 41°16' E 174°47'2176.3
2020-Jun-29 14:00S 41°18' E 174°48'2 4.1 1006.2 9.8 5.7
2020-Jun-29 13:30S 41°16' E 174°47'2 3.9
2020-Jun-29 13:00S 41°18' E 174°48'0 0.0 1006.0 10.0 5.5
2020-Jun-29 12:00S 41°18' E 174°48'0 0.0 1006.1 10.1 5.7
2020-Jun-29 11:00S 41°18' E 174°48'0 0.0 1006.2 10.1 4.8
2020-Jun-29 10:00S 41°18' E 174°48'0 0.0 1006.3 10.0 4.5
2020-Jun-29 09:00S 41°18' E 174°48'0 0.0 1006.3 10.1 3.8
2020-Jun-29 08:00S 41°18' E 174°48'0 0.0 1006.4 9.9 4.0
2020-Jun-29 07:00S 41°18' E 174°48'210.6 1006.2 9.8 3.8
2020-Jun-29 06:48S 41°16' E 174°47'2 2.5
2020-Jun-29 06:00S 41°18' E 174°48'2 4.1 1006.0 9.5 4.8
2020-Jun-29 05:30S 41°16' E 174°47'2 3.9
2020-Jun-29 05:00S 41°18' E 174°48'2 4.1 1005.8 9.5 4.5
2020-Jun-29 04:30S 41°16' E 174°47'2 3.9
2020-Jun-29 04:00S 41°18' E 174°48'0 0.0 1005.7 9.7 4.3
2020-Jun-29 03:00S 41°18' E 174°48'6 6.0 1005.3 9.7 4.7
2020-Jun-29 02:00S 41°24' E 174°48'1212.0 180 / 221005.8 10.0 4.9
2020-Jun-29 01:00S 41°36' E 174°48'4 7.7 1006.1 9.5 5.1
2020-Jun-29 00:30S 41°39' E 174°45'918.3
2020-Jun-29 00:00S 41°48' E 174°42'2 5.1 210 / 291006.1 9.3 5.3
2020-Jun-28 23:30S 41°50' E 174°42'4 6.8
2020-Jun-28 23:00S 41°54' E 174°42'715.5 220 / 341006.0 8.9 5.2
2020-Jun-28 22:30S 42°01' E 174°40'510.3
2020-Jun-28 22:00S 42°06' E 174°39'2154.8
2020-Jun-28 22:00S 42°06' E 174°42'613.4 230 / 371006.1 8.5 5.1
2020-Jun-28 21:31S 42°12' E 174°38'612.4
2020-Jun-28 21:00S 42°18' E 174°36'1212.0 240 / 371005.3 8.5 5.8
2020-Jun-28 20:00S 42°30' E 174°36'7 7.5 250 / 381004.5 8.5 7.2
2020-Jun-28 19:00S 42°36' E 174°30'1312.8 250 / 351003.5 9.2 8.5
2020-Jun-28 18:00S 42°48' E 174°24'1212.0 260 / 351002.0 10.2 9.0
2020-Jun-28 17:00S 43°00' E 174°24'6 6.0 270 / 321001.6 10.7 8.7
2020-Jun-28 16:00S 43°06' E 174°24'1312.8 270 / 341000.8 11.1 8.5
2020-Jun-28 15:00S 43°18' E 174°18'1312.8 270 / 321000.5 10.9 9.2
2020-Jun-28 14:00S 43°30' E 174°12'6 6.0 280 / 281000.1 10.8 9.5
2020-Jun-28 13:00S 43°36' E 174°12'1212.0 280 / 22999.9 10.610.3
2020-Jun-28 12:00S 43°48' E 174°12'1312.8 310 / 11999.9 11.010.9
2020-Jun-28 11:00S 44°00' E 174°06'1212.0 280 / 14999.8 10.810.8
2020-Jun-28 10:00S 44°12' E 174°06'6 6.0 270 / 8999.6 10.810.8
2020-Jun-28 09:00S 44°18' E 174°06'7 7.4 999.6 11.010.9
2020-Jun-28 08:00S 44°12' E 174°12'1312.8 999.7 10.610.6
2020-Jun-28 07:00S 44°00' E 174°18'7 7.4 999.7 11.010.9
2020-Jun-28 06:00S 43°54' E 174°24'0 0.0 999.5 11.311.1
2020-Jun-28 05:00S 43°54' E 174°24'0 0.0 020 / 9999.7 11.210.7
2020-Jun-28 04:00S 43°54' E 174°24'7 3.7 360 / 12999.6 11.411.0
2020-Jun-28 02:00S 43°48' E 174°18'7 7.4 030 / 12999.4 11.711.4
2020-Jun-28 01:00S 43°54' E 174°24'6 6.0 060 / 7999.9 12.512.2
2020-Jun-28 00:00S 44°00' E 174°24'7 7.4 070 / 171000.8 12.311.6
2020-Jun-27 23:00S 44°06' E 174°18'7 7.4 070 / 211001.8 11.911.5
2020-Jun-27 22:00S 44°12' E 174°12'7 7.4 070 / 231002.2 11.811.5
2020-Jun-27 21:00S 44°18' E 174°06'6 6.0 070 / 211002.8 11.410.9
2020-Jun-27 20:00S 44°24' E 174°06'6 6.0 070 / 221003.3 11.311.0
2020-Jun-27 19:00S 44°30' E 174°06'6 6.0 070 / 231003.8 11.111.0
2020-Jun-27 18:00S 44°36' E 174°06'4 4.3 1004.5 11.010.9
2020-Jun-27 17:00S 44°36' E 174°00'18 8.8 060 / 221004.8 10.810.6
2020-Jun-27 15:00S 44°24' E 173°42'7 7.4 060 / 201005.6 11.411.2
2020-Jun-27 14:00S 44°18' E 173°36'   060 / 181005.9 11.611.4
Track history (hours):
 
Tides and Currents Weather Stations Pressure Air Temp Water Temp Dewpoint Dewpoint Depression Visibility Wind Speed Wind Dir Waves Ship Positions

Oceanographic research ship Tangaroa (New Zealand)

Detailed information on ship capabilities available from University of Delaware's Ocean Information Center.

Last reported at 2020-Jul-07 14:00 UTC. Time now 2020-Jul-07 16:29 UTC.
Position S 44°06' E 174°42'.

Length 70 m; beam 13.8 m.

Type: Ship. MMSI: 512000058.

Wind at 29 knots

Barometer 995.0 mb
Air temperature 9.1 ° C
Dewpoint 5.6 ° C

Date/timePositionNaut miles runAvg speedWind from/ knotsBaromVisibWave heightAir tempDewpointWater temp
2020-Jul-07 14:00S 44°06' E 174°42'12 6.0 995.0 9.1 5.6
2020-Jul-07 12:00S 43°54' E 174°42'4 4.3 994.9 9.3 5.0
2020-Jul-07 11:00S 43°54' E 174°48'6 6.0 994.5 9.7 5.1
2020-Jul-07 10:00S 43°48' E 174°48'6 6.0 994.3 9.9 5.1
2020-Jul-07 09:00S 43°42' E 174°48'6 6.0 994.0 9.7 3.9
2020-Jul-07 08:00S 43°36' E 174°48'0 0.0 994.0 9.8 4.6
2020-Jul-07 07:00S 43°36' E 174°48'7 7.4 993.3 10.0 4.8
2020-Jul-07 06:00S 43°30' E 174°54'7 7.4 993.1 10.5 5.7
2020-Jul-07 05:00S 43°36' E 174°48'4 4.3 240 / 27992.9 10.3 5.4
2020-Jul-07 04:00S 43°36' E 174°42'6 6.0 993.0 8.7 6.0
2020-Jul-07 03:00S 43°42' E 174°42'7 7.4 992.0 9.7 6.3
2020-Jul-07 02:00S 43°48' E 174°36'6 6.0 991.4 9.3 6.3
2020-Jul-07 01:00S 43°54' E 174°36'7 7.4 991.3 9.9 6.6
2020-Jul-07 00:00S 44°00' E 174°30'6 6.0 991.8 9.6 7.7
2020-Jul-06 23:00S 44°06' E 174°30'6 6.0 992.0 9.9 6.3
2020-Jul-06 22:00S 44°00' E 174°30'0 0.0 991.9 10.6 6.4
2020-Jul-06 21:00S 44°00' E 174°30'0 0.0 991.8 10.6 8.0
2020-Jul-06 20:00S 44°00' E 174°30'0 0.0 991.3 10.1 8.6
2020-Jul-06 19:00S 44°00' E 174°30'0 0.0 991.1 9.9 8.4
2020-Jul-06 18:00S 44°00' E 174°30'0 0.0 991.2 9.7 8.0
2020-Jul-06 17:00S 44°00' E 174°30'0 0.0 991.5 9.5 8.1
2020-Jul-06 16:00S 44°00' E 174°30'0 0.0 992.0 9.5 8.2
2020-Jul-06 15:00S 44°00' E 174°30'0 0.0 992.4 9.7 8.0
2020-Jul-06 14:00S 44°00' E 174°30'0 0.0 992.4 9.5 7.8
2020-Jul-06 13:00S 44°00' E 174°30'0 0.0 992.8 9.7 8.5
2020-Jul-06 12:00S 44°00' E 174°30'0 0.0 993.2 9.5 8.4
2020-Jul-06 11:00S 44°00' E 174°30'0 0.0 993.1 9.4 8.5
2020-Jul-06 10:00S 44°00' E 174°30'0 0.0 993.1 9.5 8.4
2020-Jul-06 09:00S 44°00' E 174°30'0 0.0 993.1 9.8 8.5
2020-Jul-06 08:00S 44°00' E 174°30'0 0.0 993.1 10.0 8.8
2020-Jul-06 07:00S 44°00' E 174°30'0 0.0 992.7 10.2 9.2
2020-Jul-06 06:00S 44°00' E 174°30'0 0.0 992.3 10.1 9.7
2020-Jul-06 05:00S 44°00' E 174°30'7 7.4 992.0 11.310.3
2020-Jul-06 04:00S 44°06' E 174°24'0 0.0 992.1 11.910.3
2020-Jul-06 03:00S 44°06' E 174°24'0 0.0 992.2 12.210.4
2020-Jul-06 02:00S 44°06' E 174°24'6 6.0 992.9 12.410.3
2020-Jul-06 01:00S 44°00' E 174°24'0 0.0 993.6 12.210.7
2020-Jul-06 00:00S 44°00' E 174°24'4 4.3 994.3 12.611.1
2020-Jul-05 23:00S 44°00' E 174°30'0 0.0 995.1 12.811.0
2020-Jul-05 22:00S 44°00' E 174°30'4 4.3 996.3 12.811.0
2020-Jul-05 21:00S 44°00' E 174°24'0 0.0 997.1 12.810.7
2020-Jul-05 20:00S 44°00' E 174°24'4 4.3 997.3 12.710.4
2020-Jul-05 19:00S 44°00' E 174°30'0 0.0 997.5 12.810.6
2020-Jul-05 18:00S 44°00' E 174°30'4 4.3 998.1 12.610.3
2020-Jul-05 17:00S 44°00' E 174°24'4 4.3 998.7 12.510.3
2020-Jul-05 16:00S 44°00' E 174°30'0 0.0 999.2 12.610.1
2020-Jul-05 15:00S 44°00' E 174°30'4 4.3 1000.8 12.510.1
2020-Jul-05 14:00S 44°00' E 174°24'4 2.2 1000.7 12.5 9.7
2020-Jul-05 12:00S 44°00' E 174°30'4 4.3 1002.9 12.5 9.6
2020-Jul-05 11:00S 44°00' E 174°24'0 0.0 1003.6 12.4 8.7
2020-Jul-05 10:00S 44°00' E 174°24'4 4.3 1003.6 12.4 8.5
2020-Jul-05 09:00S 44°00' E 174°30'0 0.0 1004.1 12.5 8.3
2020-Jul-05 08:00S 44°00' E 174°30'0 0.0 1004.3 12.5 8.2
2020-Jul-05 07:00S 44°00' E 174°30'4 4.3 1005.0 12.0 8.8
2020-Jul-05 06:00S 44°00' E 174°24'0 0.0 1004.8 11.7 8.9
2020-Jul-05 05:00S 44°00' E 174°24'0 0.0 1005.1 11.6 9.1
2020-Jul-05 04:00S 44°00' E 174°24'4 4.3 1005.5 11.6 9.2
2020-Jul-05 03:00S 44°00' E 174°30'0 0.0 1005.9 11.7 9.4
2020-Jul-05 02:00S 44°00' E 174°30'4 4.3 1006.3 11.9 9.5
2020-Jul-05 01:00S 44°00' E 174°24'4 4.3 1006.8 11.7 9.5
2020-Jul-05 00:00S 44°00' E 174°30'0 0.0 1007.7 11.9 9.6
2020-Jul-04 23:00S 44°00' E 174°30'4 4.3 1008.8 11.8 9.9
2020-Jul-04 22:00S 44°00' E 174°24'0 0.0 1009.0 11.8 9.5
2020-Jul-04 21:00S 44°00' E 174°24'4 4.3 1008.6 11.7 9.4
2020-Jul-04 20:00S 44°00' E 174°30'0 0.0 1008.7 11.8 9.3
2020-Jul-04 19:00S 44°00' E 174°30'0 0.0 1008.9 11.8 9.3
2020-Jul-04 18:00S 44°00' E 174°30'4 4.3 1008.9 11.8 9.3
2020-Jul-04 17:00S 44°00' E 174°24'4 4.3 010 / 221009.2 11.7 9.0
2020-Jul-04 16:00S 44°00' E 174°30'0 0.0 1009.7 11.9 9.1
2020-Jul-04 15:00S 44°00' E 174°30'0 0.0 1010.1 12.0 9.4
2020-Jul-04 14:00S 44°00' E 174°30'0 0.0 1010.8 11.9 9.3
2020-Jul-04 13:00S 44°00' E 174°30'0 0.0 1011.0 12.0 9.4
2020-Jul-04 12:00S 44°00' E 174°30'0 0.0 1011.5 12.2 9.6
2020-Jul-04 11:00S 44°00' E 174°30'0 0.0 1011.6 12.1 9.2
2020-Jul-04 10:00S 44°00' E 174°30'0 0.0 1012.6 12.4 9.3
2020-Jul-04 09:00S 44°00' E 174°30'0 0.0 1013.4 12.4 9.8
2020-Jul-04 08:00S 44°00' E 174°30'0 0.0 1013.8 12.110.1
2020-Jul-04 07:00S 44°00' E 174°30'0 0.0 1014.3 11.9 9.7
2020-Jul-04 06:00S 44°00' E 174°30'0 0.0 1014.2 11.7 9.0
2020-Jul-04 05:00S 44°00' E 174°30'0 0.0 1014.9 11.6 8.7
2020-Jul-04 04:00S 44°00' E 174°30'0 0.0 1015.6 11.6 7.7
2020-Jul-04 03:00S 44°00' E 174°30'0 0.0 1016.0 11.4 7.8
2020-Jul-04 02:00S 44°00' E 174°30'0 0.0 1016.5 11.3 8.8
2020-Jul-04 01:00S 44°00' E 174°30'0 0.0 1017.9 10.7 8.3
2020-Jul-04 00:00S 44°00' E 174°30'0 0.0 1018.8 10.7 7.7
2020-Jul-03 23:00S 44°00' E 174°30'0 0.0 1019.7 10.0 7.0
2020-Jul-03 22:00S 44°00' E 174°30'0 0.0 1019.7 9.4 6.6
2020-Jul-03 21:00S 44°00' E 174°30'0 0.0 1019.6 8.5 5.8
2020-Jul-03 20:00S 44°00' E 174°30'0 0.0 1020.2 8.2 5.4
2020-Jul-03 19:00S 44°00' E 174°30'0 0.0 1020.3 8.1 5.5
2020-Jul-03 18:00S 44°00' E 174°30'0 0.0 1020.2 7.6 5.3
2020-Jul-03 17:00S 44°00' E 174°30'0 0.0 1020.1 7.5 5.5
2020-Jul-03 16:00S 44°00' E 174°30'0 0.0 1020.4 7.3 5.8
2020-Jul-03 15:00S 44°00' E 174°30'0 0.0 1021.0 7.2 6.2
2020-Jul-03 14:00S 44°00' E 174°30'0 0.0 1020.9 7.2 6.2
2020-Jul-03 13:00S 44°00' E 174°30'0 0.0 1021.0 6.9 6.2
2020-Jul-03 12:00S 44°00' E 174°30'0 0.0 1020.9 7.1 6.1
2020-Jul-03 11:00S 44°00' E 174°30'0 0.0 1021.3 7.7 5.2
2020-Jul-03 10:00S 44°00' E 174°30'0 0.0 1021.3 7.9 5.0
2020-Jul-03 09:00S 44°00' E 174°30'0 0.0 1021.6 7.9 5.1
2020-Jul-03 08:00S 44°00' E 174°30'0 0.0 1021.3 8.1 5.4
2020-Jul-03 07:00S 44°00' E 174°30'0 0.0 1021.0 8.0 5.3
2020-Jul-03 06:00S 44°00' E 174°30'0 0.0 1020.7 8.1 5.2
2020-Jul-03 05:00S 44°00' E 174°30'0 0.0 1020.4 8.3 5.4
2020-Jul-03 04:00S 44°00' E 174°30'0 0.0 1020.4 8.8 5.4
2020-Jul-03 03:00S 44°00' E 174°30'0 0.0 1020.1 8.5 5.3
2020-Jul-03 02:00S 44°00' E 174°30'0 0.0 1019.9 8.5 5.5
2020-Jul-03 01:00S 44°00' E 174°30'0 0.0 1020.4 7.9 5.9
2020-Jul-03 00:00S 44°00' E 174°30'0 0.0 1020.8 8.1 5.5
2020-Jul-02 23:00S 44°00' E 174°30'7 7.4 1021.7 7.9 6.9
2020-Jul-02 22:00S 44°06' E 174°24'4 4.3 1021.6 7.7 6.4
2020-Jul-02 21:00S 44°06' E 174°18'7 7.4 1021.3 7.7 6.3
2020-Jul-02 20:00S 44°12' E 174°12'0 0.0 1021.1 8.0 6.3
2020-Jul-02 19:00S 44°12' E 174°12'7 7.4 1021.0 7.6 6.5
2020-Jul-02 18:00S 44°18' E 174°06'0 0.0 1020.6 7.5 6.7
2020-Jul-02 17:00S 44°18' E 174°06'0 0.0 1020.0 7.1 6.4
2020-Jul-02 16:00S 44°18' E 174°06'7 7.4 1020.2 7.0 6.5
2020-Jul-02 15:00S 44°12' E 174°12'7 7.4 200 / 171020.3 7.5 6.0
2020-Jul-02 14:00S 44°06' E 174°18'11 5.3 210 / 171020.1 7.4 6.1
2020-Jul-02 12:00S 44°00' E 174°30'0 0.0 1020.0 8.2 5.1
2020-Jul-02 11:00S 44°00' E 174°30'1212.0 1019.8 8.2 5.5
2020-Jul-02 10:00S 43°48' E 174°30'7 7.4 210 / 271019.4 8.6 5.6
2020-Jul-02 09:00S 43°42' E 174°24'1212.0 210 / 301019.1 8.3 6.4
2020-Jul-02 08:00S 43°30' E 174°24'6 6.0 220 / 311018.5 8.5 5.7
2020-Jul-02 07:00S 43°24' E 174°24'7 7.4 210 / 291018.3 8.6 5.5
2020-Jul-02 06:00S 43°18' E 174°18'1312.8 220 / 281018.2 8.5 5.3
2020-Jul-02 05:00S 43°06' E 174°24'7 7.4 210 / 271017.7 8.5 4.7
2020-Jul-02 04:00S 43°00' E 174°30'7 7.4 200 / 311016.8 8.8 4.0
2020-Jul-02 03:00S 42°54' E 174°36'7 7.4 1015.9 8.9 3.4
2020-Jul-02 02:00S 42°48' E 174°42'6 6.0 1015.2 8.1 4.5
2020-Jul-02 01:00S 42°42' E 174°42'7 3.7 1014.8 8.7 2.9
2020-Jul-01 23:00S 42°36' E 174°48'6 6.0 1014.4 8.3 3.5
2020-Jul-01 22:00S 42°30' E 174°48'6 6.0 1013.2 8.2 5.1
2020-Jul-01 21:00S 42°24' E 174°48'6 6.0 1011.9 8.8 5.3
2020-Jul-01 20:00S 42°18' E 174°48'6 6.0 1010.7 8.6 5.4
2020-Jul-01 19:00S 42°12' E 174°48'0 0.0 1009.3 8.7 5.7
2020-Jul-01 18:00S 42°12' E 174°48'6 6.0 1007.9 8.6 5.9
2020-Jul-01 17:00S 42°06' E 174°48'6 6.0 1006.9 8.8 5.4
2020-Jul-01 16:00S 42°00' E 174°48'3125.2 1006.5 9.2 6.3
2020-Jul-01 15:58S 42°02' E 174°45'8 8.1
2020-Jul-01 15:00S 41°54' E 174°48'0 0.0 1005.9 9.3 6.0
2020-Jul-01 14:00S 41°54' E 174°48'3 7.1 1005.5 9.2 6.0
2020-Jul-01 13:30S 41°51' E 174°47'9 5.7
2020-Jul-01 12:00S 41°42' E 174°48'0 0.0 1004.2 8.5 6.5
2020-Jul-01 11:00S 41°42' E 174°48'6 6.0 1004.3 7.6 5.8
2020-Jul-01 10:00S 41°36' E 174°48'6 6.0 1004.2 7.3 4.4
2020-Jul-01 09:00S 41°30' E 174°48'6 6.0 1004.8 7.6 4.8
2020-Jul-01 08:00S 41°24' E 174°48'6 6.0 1004.4 9.1 3.8
2020-Jul-01 07:00S 41°18' E 174°48'0 0.0 1004.5 9.2 2.7
2020-Jul-01 06:00S 41°18' E 174°48'2 2.3 1004.8 9.3 0.5
2020-Jul-01 05:07S 41°16' E 174°47'217.1
2020-Jul-01 05:00S 41°18' E 174°48'2 2.0 1004.8 9.4 0.8
2020-Jul-01 04:01S 41°16' E 174°47'2118.5
2020-Jul-01 04:00S 41°18' E 174°48'0 0.0 1004.9 9.1 0.7
2020-Jul-01 03:00S 41°18' E 174°48'2 3.2 1004.8 9.3 0.8
2020-Jul-01 02:22S 41°16' E 174°47'2 5.5
2020-Jul-01 02:00S 41°18' E 174°48'0 0.0 1004.9 9.3 1.3
2020-Jul-01 01:00S 41°18' E 174°48'2 2.0 1005.0 8.9 1.1
2020-Jul-01 00:00S 41°16' E 174°47'2122.5
2020-Jul-01 00:00S 41°18' E 174°48'0 0.0 1005.9 8.8 1.5
2020-Jun-30 23:00S 41°18' E 174°48'0 0.0 1006.5 8.5 0.9
2020-Jun-30 22:00S 41°18' E 174°48'2 3.7 1006.1 8.1 1.7
2020-Jun-30 21:27S 41°16' E 174°47'2 4.3
2020-Jun-30 21:00S 41°18' E 174°48'0 0.0 1006.0 7.4 3.4
2020-Jun-30 20:00S 41°18' E 174°48'0 0.0 1005.6 7.3 2.6
2020-Jun-30 19:00S 41°18' E 174°48'2 4.1 1005.4 7.6 3.0
2020-Jun-30 18:30S 41°16' E 174°47'2 3.9
2020-Jun-30 18:00S 41°18' E 174°48'258.3 1005.0 7.2 3.8
2020-Jun-30 17:57S 41°16' E 174°47'0 0.0
2020-Jun-30 17:30S 41°16' E 174°47'2 3.9
2020-Jun-30 17:00S 41°18' E 174°48'2 4.1 1004.4 7.8 4.1
2020-Jun-30 16:30S 41°16' E 174°47'2 3.9
2020-Jun-30 16:00S 41°18' E 174°48'2 4.1 1004.4 8.1 3.8
2020-Jun-30 15:30S 41°16' E 174°47'2 3.9
2020-Jun-30 15:00S 41°18' E 174°48'2 4.1 1004.5 8.8 4.4
2020-Jun-30 14:30S 41°16' E 174°47'2 3.9
2020-Jun-30 14:00S 41°18' E 174°48'2 4.1 1004.5 9.4 3.2
2020-Jun-30 13:30S 41°16' E 174°47'2 3.9
2020-Jun-30 13:00S 41°18' E 174°48'2 2.0 1004.2 9.8 3.2
2020-Jun-30 12:00S 41°16' E 174°47'2138.6
2020-Jun-30 12:00S 41°18' E 174°48'0 0.0 1004.4 9.9 2.2
2020-Jun-30 11:00S 41°18' E 174°48'0 0.0 1004.6 9.8 2.0
2020-Jun-30 10:00S 41°18' E 174°48'0 0.0 1004.6 9.5 2.4
2020-Jun-30 09:00S 41°18' E 174°48'0 0.0 1004.6 9.2 2.3
2020-Jun-30 08:00S 41°18' E 174°48'2 3.4 1004.9 8.9 4.1
2020-Jun-30 07:24S 41°16' E 174°47'2 4.9
2020-Jun-30 07:00S 41°18' E 174°48'0 0.0 1005.0 8.5 4.0
2020-Jun-30 06:00S 41°18' E 174°48'0 0.0 1005.3 8.0 4.5
2020-Jun-30 05:00S 41°18' E 174°48'0 0.0 1005.4 7.6 4.7
2020-Jun-30 04:00S 41°18' E 174°48'2 4.1 1005.4 8.3 4.4
2020-Jun-30 03:30S 41°16' E 174°47'2 3.9
2020-Jun-30 03:00S 41°18' E 174°48'2 4.1 1005.7 7.7 4.9
2020-Jun-30 02:30S 41°16' E 174°47'2 3.9
2020-Jun-30 02:00S 41°18' E 174°48'0 0.0 1005.5 9.2 4.2
2020-Jun-30 01:00S 41°18' E 174°48'2 4.1 1006.4 8.0 4.7
2020-Jun-30 00:30S 41°16' E 174°47'2 3.9
2020-Jun-30 00:00S 41°18' E 174°48'0 0.0 1007.0 8.7 4.4
2020-Jun-29 23:00S 41°18' E 174°48'253.5 1007.3 9.4 4.7
2020-Jun-29 22:57S 41°16' E 174°47'0 0.0
2020-Jun-29 22:30S 41°16' E 174°47'2 3.9
2020-Jun-29 22:00S 41°18' E 174°48'2 4.1 1007.3 9.8 1.5
2020-Jun-29 21:30S 41°16' E 174°47'2 3.9
2020-Jun-29 21:00S 41°18' E 174°48'0 0.0 1007.1 9.7 2.6
2020-Jun-29 20:00S 41°18' E 174°48'0 0.0 1006.8 9.5 3.8
2020-Jun-29 19:00S 41°18' E 174°48'0 0.0 1006.4 9.4 5.6
2020-Jun-29 18:00S 41°18' E 174°48'0 0.0 1005.9 9.5 5.8
2020-Jun-29 17:00S 41°18' E 174°48'2 4.1 1005.9 9.4 5.2
2020-Jun-29 16:30S 41°16' E 174°47'0 0.0
2020-Jun-29 16:00S 41°16' E 174°47'2172.1
2020-Jun-29 16:00S 41°18' E 174°48'0 0.0 1006.2 9.6 5.8
2020-Jun-29 15:00S 41°18' E 174°48'2 2.0 1006.2 10.1 3.6
2020-Jun-29 14:00S 41°16' E 174°47'2176.3
2020-Jun-29 14:00S 41°18' E 174°48'2 4.1 1006.2 9.8 5.7
2020-Jun-29 13:30S 41°16' E 174°47'2 3.9
2020-Jun-29 13:00S 41°18' E 174°48'0 0.0 1006.0 10.0 5.5
2020-Jun-29 12:00S 41°18' E 174°48'0 0.0 1006.1 10.1 5.7
2020-Jun-29 11:00S 41°18' E 174°48'0 0.0 1006.2 10.1 4.8
2020-Jun-29 10:00S 41°18' E 174°48'0 0.0 1006.3 10.0 4.5
2020-Jun-29 09:00S 41°18' E 174°48'0 0.0 1006.3 10.1 3.8
2020-Jun-29 08:00S 41°18' E 174°48'0 0.0 1006.4 9.9 4.0
2020-Jun-29 07:00S 41°18' E 174°48'210.6 1006.2 9.8 3.8
2020-Jun-29 06:48S 41°16' E 174°47'2 2.5
2020-Jun-29 06:00S 41°18' E 174°48'2 4.1 1006.0 9.5 4.8
2020-Jun-29 05:30S 41°16' E 174°47'2 3.9
2020-Jun-29 05:00S 41°18' E 174°48'2 4.1 1005.8 9.5 4.5
2020-Jun-29 04:30S 41°16' E 174°47'2 3.9
2020-Jun-29 04:00S 41°18' E 174°48'0 0.0 1005.7 9.7 4.3
2020-Jun-29 03:00S 41°18' E 174°48'6 6.0 1005.3 9.7 4.7
2020-Jun-29 02:00S 41°24' E 174°48'1212.0 180 / 221005.8 10.0 4.9
2020-Jun-29 01:00S 41°36' E 174°48'4 7.7 1006.1 9.5 5.1
2020-Jun-29 00:30S 41°39' E 174°45'918.3
2020-Jun-29 00:00S 41°48' E 174°42'2 5.1 210 / 291006.1 9.3 5.3
2020-Jun-28 23:30S 41°50' E 174°42'4 6.8
2020-Jun-28 23:00S 41°54' E 174°42'715.5 220 / 341006.0 8.9 5.2
2020-Jun-28 22:30S 42°01' E 174°40'510.3
2020-Jun-28 22:00S 42°06' E 174°39'2154.8
2020-Jun-28 22:00S 42°06' E 174°42'613.4 230 / 371006.1 8.5 5.1
2020-Jun-28 21:31S 42°12' E 174°38'612.4
2020-Jun-28 21:00S 42°18' E 174°36'1212.0 240 / 371005.3 8.5 5.8
2020-Jun-28 20:00S 42°30' E 174°36'7 7.5 250 / 381004.5 8.5 7.2
2020-Jun-28 19:00S 42°36' E 174°30'1312.8 250 / 351003.5 9.2 8.5
2020-Jun-28 18:00S 42°48' E 174°24'1212.0 260 / 351002.0 10.2 9.0
2020-Jun-28 17:00S 43°00' E 174°24'6 6.0 270 / 321001.6 10.7 8.7
2020-Jun-28 16:00S 43°06' E 174°24'1312.8 270 / 341000.8 11.1 8.5
2020-Jun-28 15:00S 43°18' E 174°18'1312.8 270 / 321000.5 10.9 9.2
2020-Jun-28 14:00S 43°30' E 174°12'6 6.0 280 / 281000.1 10.8 9.5
2020-Jun-28 13:00S 43°36' E 174°12'1212.0 280 / 22999.9 10.610.3
2020-Jun-28 12:00S 43°48' E 174°12'1312.8 310 / 11999.9 11.010.9
2020-Jun-28 11:00S 44°00' E 174°06'1212.0 280 / 14999.8 10.810.8
2020-Jun-28 10:00S 44°12' E 174°06'6 6.0 270 / 8999.6 10.810.8
2020-Jun-28 09:00S 44°18' E 174°06'7 7.4 999.6 11.010.9
2020-Jun-28 08:00S 44°12' E 174°12'1312.8 999.7 10.610.6
2020-Jun-28 07:00S 44°00' E 174°18'7 7.4 999.7 11.010.9
2020-Jun-28 06:00S 43°54' E 174°24'0 0.0 999.5 11.311.1
2020-Jun-28 05:00S 43°54' E 174°24'0 0.0 020 / 9999.7 11.210.7
2020-Jun-28 04:00S 43°54' E 174°24'7 3.7 360 / 12999.6 11.411.0
2020-Jun-28 02:00S 43°48' E 174°18'7 7.4 030 / 12999.4 11.711.4
2020-Jun-28 01:00S 43°54' E 174°24'6 6.0 060 / 7999.9 12.512.2
2020-Jun-28 00:00S 44°00' E 174°24'7 7.4 070 / 171000.8 12.311.6
2020-Jun-27 23:00S 44°06' E 174°18'7 7.4 070 / 211001.8 11.911.5
2020-Jun-27 22:00S 44°12' E 174°12'7 7.4 070 / 231002.2 11.811.5
2020-Jun-27 21:00S 44°18' E 174°06'6 6.0 070 / 211002.8 11.410.9
2020-Jun-27 20:00S 44°24' E 174°06'6 6.0 070 / 221003.3 11.311.0
2020-Jun-27 19:00S 44°30' E 174°06'6 6.0 070 / 231003.8 11.111.0
2020-Jun-27 18:00S 44°36' E 174°06'4 4.3 1004.5 11.010.9
2020-Jun-27 17:00S 44°36' E 174°00'18 8.8 060 / 221004.8 10.810.6
2020-Jun-27 15:00S 44°24' E 173°42'7 7.4 060 / 201005.6 11.411.2
2020-Jun-27 14:00S 44°18' E 173°36'   060 / 181005.9 11.611.4

Dump ship's entire track history